createdAt,value
2023-04-15T00:00:00.128Z,33.13
2023-04-15T00:03:03.563Z,32.88
2023-04-15T00:06:07.048Z,32.95
2023-04-15T00:09:11.582Z,33.12
2023-04-15T00:12:14.714Z,33.25
2023-04-15T00:15:18.075Z,33.21
2023-04-15T00:18:21.088Z,33.19
2023-04-15T00:21:24.128Z,33.23
2023-04-15T00:24:29.438Z,33.01
2023-04-15T00:27:32.561Z,33.11
2023-04-15T00:30:35.665Z,33.23
2023-04-15T00:33:38.812Z,32.89
2023-04-15T00:36:41.866Z,33.31
2023-04-15T00:39:46.429Z,32.94
2023-04-15T00:42:49.454Z,33.08
2023-04-15T00:45:54.860Z,33.15
2023-04-15T00:48:58.117Z,32.81
2023-04-15T00:52:01.220Z,32.97
2023-04-15T00:55:06.540Z,32.89
2023-04-15T00:58:09.611Z,32.98
2023-04-15T01:01:12.786Z,32.88
2023-04-15T01:04:17.210Z,32.91
2023-04-15T01:07:20.376Z,33.22
2023-04-15T01:10:25.053Z,32.78
2023-04-15T01:13:28.712Z,32.79
2023-04-15T01:16:32.571Z,33.05
2023-04-15T01:19:35.856Z,33.19
2023-04-15T01:22:39.569Z,33.22
2023-04-15T01:25:45.553Z,32.89
2023-04-15T01:28:49.110Z,32.86
2023-04-15T01:31:53.287Z,33.01
2023-04-15T01:34:56.699Z,33.03
2023-04-15T01:38:05.393Z,32.94
2023-04-15T01:41:09.953Z,33.02
2023-04-15T01:44:13.029Z,32.94
2023-04-15T01:47:16.127Z,33.18
2023-04-15T01:50:20.556Z,32.70
2023-04-15T01:53:23.576Z,32.93
2023-04-15T01:56:28.146Z,32.87
2023-04-15T01:59:32.318Z,32.96
2023-04-15T02:02:36.128Z,32.84
2023-04-15T02:05:39.321Z,33.04
2023-04-15T02:08:42.402Z,32.89
2023-04-15T02:11:47.141Z,32.71
2023-04-15T02:14:50.199Z,33.08
2023-04-15T02:17:55.471Z,32.85
2023-04-15T02:20:59.068Z,33.04
2023-04-15T02:24:02.393Z,32.85
2023-04-15T02:27:06.911Z,33.24
2023-04-15T02:30:10.426Z,33.10
2023-04-15T02:33:13.492Z,33.23
2023-04-15T02:36:16.643Z,33.22
2023-04-15T02:39:20.240Z,33.15
2023-04-15T02:42:27.772Z,33.26
2023-04-15T02:45:30.804Z,33.21
2023-04-15T02:48:33.957Z,33.24
2023-04-15T02:51:37.028Z,33.25
2023-04-15T02:54:40.128Z,33.08
2023-04-15T02:57:44.586Z,33.29
2023-04-15T03:00:47.638Z,33.18
2023-04-15T03:03:51.007Z,33.24
2023-04-15T03:06:54.535Z,33.34
2023-04-15T03:09:57.961Z,32.93
2023-04-15T03:13:02.318Z,33.08
2023-04-15T03:16:05.810Z,33.03
2023-04-15T03:19:09.105Z,33.05
2023-04-15T03:22:12.113Z,33.14
2023-04-15T03:25:15.246Z,33.17
2023-04-15T03:28:19.689Z,32.78
2023-04-15T03:31:22.907Z,32.93
2023-04-15T03:34:26.038Z,32.96
2023-04-15T03:37:29.085Z,33.14
2023-04-15T03:40:32.166Z,33.06
2023-04-15T03:43:36.664Z,33.05
2023-04-15T03:46:39.711Z,33.04
2023-04-15T03:49:42.835Z,33.37
2023-04-15T03:52:46.026Z,33.26
2023-04-15T03:55:49.047Z,33.14
2023-04-15T03:58:53.502Z,33.04
2023-04-15T04:01:56.756Z,33.34
2023-04-15T04:04:59.836Z,33.25
2023-04-15T04:08:02.858Z,33.10
2023-04-15T04:11:06.668Z,33.08
2023-04-15T04:14:11.086Z,32.94
2023-04-15T04:17:14.185Z,33.14
2023-04-15T04:20:17.371Z,33.47
2023-04-15T04:23:20.798Z,33.05
2023-04-15T04:26:24.065Z,33.13
2023-04-15T04:29:28.489Z,32.91
2023-04-15T04:32:31.637Z,33.17
2023-04-15T04:35:37.756Z,32.85
2023-04-15T04:38:40.894Z,33.32
2023-04-15T04:41:44.021Z,33.15
2023-04-15T04:44:48.516Z,33.21
2023-04-15T04:47:51.618Z,33.21
2023-04-15T04:50:55.033Z,33.08
2023-04-15T04:53:58.075Z,33.46
2023-04-15T04:57:01.810Z,33.74
2023-04-15T05:00:08.884Z,33.54
2023-04-15T05:03:12.416Z,33.66
2023-04-15T05:06:15.794Z,33.74
2023-04-15T05:09:19.190Z,33.96
2023-04-15T05:12:22.285Z,33.97
2023-04-15T05:15:26.759Z,33.73
2023-04-15T05:18:29.850Z,33.83
2023-04-15T05:21:33.048Z,33.80
2023-04-15T05:24:36.104Z,33.82
2023-04-15T05:27:39.280Z,33.90
2023-04-15T05:30:44.075Z,33.77
2023-04-15T05:33:47.334Z,33.82
2023-04-15T05:36:50.643Z,34.01
2023-04-15T05:39:53.900Z,33.84
2023-04-15T05:42:56.954Z,33.86
2023-04-15T05:46:01.732Z,33.68
2023-04-15T05:49:04.827Z,33.52
2023-04-15T05:52:08.185Z,33.21
2023-04-15T05:55:11.944Z,33.29
2023-04-15T05:58:15.038Z,33.45
2023-04-15T06:01:19.769Z,32.27
2023-04-15T06:04:23.078Z,34.26
2023-04-15T06:07:26.360Z,34.30
2023-04-15T06:10:29.909Z,34.17
2023-04-15T06:13:33.403Z,34.56
2023-04-15T06:16:38.022Z,34.33
2023-04-15T06:19:41.166Z,34.30
2023-04-15T06:22:44.322Z,33.94
2023-04-15T06:25:47.351Z,33.79
2023-04-15T06:28:50.733Z,34.42
2023-04-15T06:31:56.540Z,33.53
2023-04-15T06:34:59.650Z,33.25
2023-04-15T06:38:02.747Z,32.57
2023-04-15T06:41:06.032Z,32.05
2023-04-15T06:44:09.103Z,31.83
2023-04-15T06:47:14.810Z,32.47
2023-04-15T06:50:17.839Z,32.53
2023-04-15T06:53:20.943Z,32.36
2023-04-15T06:56:23.984Z,33.75
2023-04-15T06:59:27.386Z,33.54
2023-04-15T07:02:31.894Z,33.97
2023-04-15T07:05:34.992Z,33.72
2023-04-15T07:08:38.040Z,34.37
2023-04-15T07:11:41.057Z,33.74
2023-04-15T07:14:44.688Z,33.77
2023-04-15T07:17:49.126Z,33.75
2023-04-15T07:20:52.308Z,33.57
2023-04-15T07:23:55.408Z,33.53
2023-04-15T07:27:00.843Z,33.54
2023-04-15T07:30:04.567Z,33.67
2023-04-15T07:33:08.960Z,34.67
2023-04-15T07:36:12.050Z,34.11
2023-04-15T07:39:15.131Z,34.29
2023-04-15T07:42:18.265Z,34.70
2023-04-15T07:45:21.810Z,34.94
2023-04-15T07:48:26.654Z,35.03
2023-04-15T07:51:29.805Z,34.92
2023-04-15T07:54:32.837Z,34.57
2023-04-15T07:57:36.263Z,34.41
2023-04-15T08:00:39.548Z,34.40
2023-04-15T08:03:44.195Z,34.19
2023-04-15T08:06:49.935Z,33.92
2023-04-15T08:09:53.049Z,34.32
2023-04-15T08:12:56.537Z,34.03
2023-04-15T08:16:16.549Z,34.87
2023-04-15T08:19:21.370Z,34.88
2023-04-15T08:22:25.101Z,34.57
2023-04-15T08:25:28.418Z,34.35
2023-04-15T08:28:31.610Z,33.89
2023-04-15T08:31:34.886Z,34.05
2023-04-15T08:34:39.366Z,33.62
2023-04-15T08:37:42.895Z,33.58
2023-04-15T08:40:47.174Z,33.45
2023-04-15T08:43:55.032Z,32.82
2023-04-15T08:46:58.354Z,33.53
2023-04-15T08:50:05.717Z,32.85
2023-04-15T08:53:09.011Z,33.27
2023-04-15T08:59:19.012Z,33.87
2023-04-15T09:02:23.352Z,34.40
2023-04-15T09:05:27.930Z,35.16
2023-04-15T09:08:31.161Z,35.30
2023-04-15T09:11:34.265Z,35.67
2023-04-15T09:14:37.375Z,35.10
2023-04-15T09:17:44.283Z,35.38
2023-04-15T09:20:48.827Z,35.87
2023-04-15T09:23:59.862Z,35.97
2023-04-15T09:27:03.748Z,36.81
2023-04-15T09:30:10.600Z,36.44
2023-04-15T09:33:16.586Z,36.87
2023-04-15T09:36:21.075Z,37.40
2023-04-15T09:39:24.408Z,36.98
2023-04-15T09:42:28.794Z,35.13
2023-04-15T09:45:32.629Z,35.04
2023-04-15T09:48:35.744Z,34.23
2023-04-15T09:51:42.182Z,33.31
2023-04-15T09:54:46.909Z,33.54
2023-04-15T09:57:50.050Z,33.47
2023-04-15T10:00:54.529Z,33.44
2023-04-15T10:03:59.552Z,34.26
2023-04-15T10:07:06.246Z,34.17
2023-04-15T10:10:10.266Z,34.59
2023-04-15T10:13:15.331Z,34.36
2023-04-15T10:16:21.909Z,34.64
2023-04-15T10:19:28.953Z,35.25
2023-04-15T10:22:34.145Z,35.49
2023-04-15T10:25:38.134Z,35.68
2023-04-15T10:28:41.158Z,35.33
2023-04-15T10:31:45.066Z,35.84
2023-04-15T10:34:49.824Z,35.35
2023-04-15T10:37:54.366Z,35.46
2023-04-15T10:41:14.430Z,35.22
2023-04-15T10:44:17.574Z,35.04
2023-04-15T10:47:22.175Z,35.44
2023-04-15T10:50:28.713Z,35.52
2023-04-15T10:53:33.358Z,35.82
2023-04-15T10:56:36.483Z,35.34
2023-04-15T11:00:00.406Z,35.11
2023-04-15T11:03:08.183Z,35.53
2023-04-15T11:06:11.470Z,35.44
2023-04-15T11:09:33.454Z,36.25
2023-04-15T11:12:37.151Z,35.97
2023-04-15T11:15:41.705Z,36.34
2023-04-15T11:18:55.939Z,36.30
2023-04-15T11:21:59.050Z,36.66
2023-04-15T11:25:04.119Z,36.26
2023-04-15T11:28:08.037Z,35.47
2023-04-15T11:31:14.510Z,35.11
2023-04-15T11:34:24.290Z,34.58
2023-04-15T11:37:31.795Z,34.44
2023-04-15T11:40:36.900Z,33.65
2023-04-15T11:43:40.063Z,33.79
2023-04-15T11:46:44.467Z,33.83
2023-04-15T11:49:48.709Z,33.84
2023-04-15T11:52:55.326Z,33.39
2023-04-15T11:55:59.741Z,33.59
2023-04-15T11:59:03.086Z,33.65
2023-04-15T12:02:13.588Z,33.85
2023-04-15T12:05:16.947Z,33.74
2023-04-15T12:08:20.026Z,33.95
2023-04-15T12:11:30.657Z,33.96
2023-04-15T12:14:34.346Z,34.11
2023-04-15T12:17:51.740Z,33.83
2023-04-15T12:20:55.596Z,33.58
2023-04-15T12:23:59.401Z,33.86
2023-04-15T12:27:08.154Z,33.93
2023-04-15T12:30:11.936Z,33.78
2023-04-15T12:33:15.011Z,33.30
2023-04-15T12:36:18.214Z,32.95
2023-04-15T12:39:23.912Z,32.85
2023-04-15T12:42:28.317Z,32.58
2023-04-15T12:45:31.766Z,32.48
2023-04-15T12:48:34.841Z,31.88
2023-04-15T12:51:37.901Z,31.60
2023-04-15T12:54:41.235Z,31.52
2023-04-15T12:57:45.691Z,31.49
2023-04-15T13:00:49.023Z,31.19
2023-04-15T13:03:52.232Z,30.68
2023-04-15T13:06:56.278Z,30.61
2023-04-15T13:09:59.321Z,30.60
2023-04-15T13:13:03.878Z,30.38
2023-04-15T13:16:07.647Z,30.01
2023-04-15T13:19:10.774Z,27.81
2023-04-15T13:22:15.017Z,29.34
2023-04-15T13:25:18.005Z,28.98
2023-04-15T13:28:22.515Z,29.13
2023-04-15T13:31:25.716Z,29.19
2023-04-15T13:34:28.799Z,29.01
2023-04-15T13:37:32.099Z,28.78
2023-04-15T13:40:35.102Z,29.16
2023-04-15T13:43:39.497Z,29.85
2023-04-15T13:46:42.893Z,29.68
2023-04-15T13:49:45.980Z,30.26
2023-04-15T13:52:49.024Z,29.72
2023-04-15T13:55:52.036Z,29.52
2023-04-15T13:58:59.041Z,30.45
2023-04-15T14:02:02.218Z,29.93
2023-04-15T14:05:05.958Z,29.67
2023-04-15T14:08:09.014Z,29.56
2023-04-15T14:11:12.182Z,29.12
2023-04-15T14:14:16.613Z,29.64
2023-04-15T14:17:19.721Z,29.42
2023-04-15T14:20:22.712Z,29.02
2023-04-15T14:23:25.784Z,28.76
2023-04-15T14:26:28.855Z,28.69
2023-04-15T14:29:33.255Z,28.71
2023-04-15T14:32:36.366Z,28.07
2023-04-15T14:35:39.459Z,28.30
2023-04-15T14:38:42.525Z,28.27
2023-04-15T14:41:45.509Z,28.20
2023-04-15T14:44:50.082Z,27.76
2023-04-15T14:47:53.389Z,27.74
2023-04-15T14:50:56.516Z,27.93
2023-04-15T14:53:59.815Z,27.86
2023-04-15T14:57:04.656Z,28.30
2023-04-15T15:00:16.042Z,28.01
2023-04-15T15:03:20.226Z,28.34
2023-04-15T15:06:25.431Z,28.40
2023-04-15T15:09:29.133Z,28.40
2023-04-15T15:12:33.684Z,28.15
2023-04-15T15:15:39.559Z,28.76
2023-04-15T15:18:42.708Z,28.20
2023-04-15T15:21:45.684Z,28.44
2023-04-15T15:24:48.678Z,28.63
2023-04-15T15:27:51.866Z,28.90
2023-04-15T15:30:56.458Z,28.38
2023-04-15T15:33:59.677Z,28.46
2023-04-15T15:37:02.740Z,28.41
2023-04-15T15:40:06.730Z,28.66
2023-04-15T15:43:10.024Z,28.88
2023-04-15T15:46:14.547Z,28.60
2023-04-15T15:49:17.741Z,28.94
2023-04-15T15:52:20.912Z,27.71
2023-04-15T15:55:25.325Z,27.53
2023-04-15T15:58:28.467Z,28.33
2023-04-15T16:01:32.979Z,28.22
2023-04-15T16:04:36.836Z,28.26
2023-04-15T16:07:40.105Z,27.99
2023-04-15T16:10:43.440Z,27.69
2023-04-15T16:13:46.550Z,28.11
2023-04-15T16:16:51.116Z,28.19
2023-04-15T16:19:58.683Z,27.83
2023-04-15T16:23:13.122Z,28.01
2023-04-15T16:26:16.415Z,28.07
2023-04-15T16:29:22.230Z,28.14
2023-04-15T16:32:27.424Z,27.88
2023-04-15T16:35:31.324Z,27.77
2023-04-15T16:38:35.962Z,27.85
2023-04-15T16:41:39.376Z,28.29
2023-04-15T16:44:42.768Z,28.10
2023-04-15T16:47:47.324Z,27.59
2023-04-15T16:50:50.461Z,28.11
2023-04-15T16:53:53.525Z,28.01
2023-04-15T16:56:56.553Z,27.66
2023-04-15T16:59:59.563Z,28.08
2023-04-15T17:03:04.421Z,28.58
2023-04-15T17:06:07.920Z,28.72
2023-04-15T17:09:11.097Z,28.72
2023-04-15T17:12:14.978Z,28.80
2023-04-15T17:15:18.272Z,29.03
2023-04-15T17:18:22.732Z,29.11
2023-04-15T17:21:27.581Z,28.74
2023-04-15T17:24:30.693Z,29.09
2023-04-15T17:27:33.711Z,28.87
2023-04-15T17:30:36.939Z,28.86
2023-04-15T17:34:02.036Z,29.24
2023-04-15T17:37:05.034Z,28.78
2023-04-15T17:40:09.116Z,28.92
2023-04-15T17:43:12.125Z,29.05
2023-04-15T17:46:15.499Z,28.90
2023-04-15T17:49:20.053Z,28.94
2023-04-15T17:52:23.151Z,28.62
2023-04-15T17:55:26.363Z,28.94
2023-04-15T17:58:29.521Z,28.24
2023-04-15T18:01:32.650Z,28.32
2023-04-15T18:04:37.207Z,28.26
2023-04-15T18:07:40.383Z,28.28
2023-04-15T18:10:43.548Z,28.24
2023-04-15T18:13:46.601Z,27.89
2023-04-15T18:16:50.046Z,28.57
2023-04-15T18:19:54.513Z,28.47
2023-04-15T18:22:57.537Z,28.60
2023-04-15T18:26:00.683Z,29.23
2023-04-15T18:29:03.806Z,29.10
2023-04-15T18:32:06.915Z,29.43
2023-04-15T18:35:11.877Z,29.22
2023-04-15T18:38:14.997Z,29.31
2023-04-15T18:41:18.033Z,29.76
2023-04-15T18:44:21.249Z,29.68
2023-04-15T18:47:26.862Z,30.02
2023-04-15T18:50:31.581Z,30.23
2023-04-15T18:53:34.576Z,29.97
2023-04-15T18:56:37.686Z,30.51
2023-04-15T18:59:40.744Z,30.29
2023-04-15T19:02:44.207Z,30.38
2023-04-15T19:05:48.857Z,30.48
2023-04-15T19:08:53.021Z,31.11
2023-04-15T19:11:57.031Z,30.70
2023-04-15T19:15:00.114Z,31.34
2023-04-15T19:18:05.429Z,31.04
2023-04-15T19:21:09.998Z,31.34
2023-04-15T19:24:12.990Z,31.36
2023-04-15T19:27:16.123Z,31.25
2023-04-15T19:30:19.189Z,31.44
2023-04-15T19:33:22.261Z,31.33
2023-04-15T19:36:29.347Z,30.92
2023-04-15T19:39:32.387Z,31.52
2023-04-15T19:42:35.556Z,31.16
2023-04-15T19:45:38.743Z,31.59
2023-04-15T19:48:41.916Z,31.64
2023-04-15T19:51:46.370Z,31.88
2023-04-15T19:54:49.428Z,31.77
2023-04-15T19:57:52.529Z,32.13
2023-04-15T20:00:55.743Z,31.79
2023-04-15T20:03:59.037Z,32.30
2023-04-15T20:10:39.012Z,32.30
2023-04-15T20:13:42.002Z,32.25
2023-04-15T20:16:45.090Z,32.18
2023-04-15T20:19:48.143Z,32.20
2023-04-15T20:22:53.233Z,32.95
2023-04-15T20:25:56.815Z,32.59
2023-04-15T20:29:00.621Z,32.48
2023-04-15T20:32:03.683Z,33.06
2023-04-15T20:35:08.073Z,32.91
2023-04-15T20:38:12.853Z,32.56
2023-04-15T20:41:15.922Z,32.91
2023-04-15T20:44:18.993Z,32.79
2023-04-15T20:47:22.089Z,32.73
2023-04-15T20:50:25.458Z,33.05
2023-04-15T20:53:29.928Z,33.02
2023-04-15T20:56:32.900Z,33.02
2023-04-15T20:59:36.099Z,32.94
2023-04-15T21:02:39.442Z,33.03
2023-04-15T21:05:42.683Z,32.84
2023-04-15T21:08:47.141Z,33.28
2023-04-15T21:14:56.664Z,32.54
2023-04-15T21:17:59.716Z,33.04
2023-04-15T21:21:03.834Z,32.88
2023-04-15T21:24:08.885Z,33.19
2023-04-15T21:27:11.918Z,33.07
2023-04-15T21:30:15.074Z,32.88
2023-04-15T21:33:20.415Z,32.61
2023-04-15T21:36:23.424Z,32.55
2023-04-15T21:39:27.911Z,32.52
2023-04-15T21:42:31.162Z,32.79
2023-04-15T21:45:34.307Z,32.77
2023-04-15T21:48:37.481Z,32.88
2023-04-15T21:51:40.721Z,32.69
2023-04-15T21:54:45.117Z,32.82
2023-04-15T21:57:48.144Z,32.47
2023-04-15T22:00:51.412Z,32.51
2023-04-15T22:03:54.728Z,32.40
2023-04-15T22:07:01.682Z,32.51
2023-04-15T22:10:06.933Z,32.67
2023-04-15T22:13:11.166Z,32.66
2023-04-15T22:16:14.222Z,32.48
2023-04-15T22:19:17.309Z,32.80
2023-04-15T22:22:20.665Z,32.65
2023-04-15T22:25:31.689Z,32.63
2023-04-15T22:28:34.803Z,32.70
2023-04-15T22:31:38.028Z,32.45
2023-04-15T22:34:41.086Z,32.77
2023-04-15T22:37:44.105Z,32.89
2023-04-15T22:40:48.618Z,32.33
2023-04-15T22:43:51.680Z,32.69
2023-04-15T22:46:54.673Z,32.51
2023-04-15T22:49:57.635Z,32.44
2023-04-15T22:53:00.658Z,32.65
2023-04-15T22:56:05.204Z,32.58
2023-04-15T22:59:08.573Z,32.43
2023-04-15T23:02:12.169Z,32.46
2023-04-15T23:05:15.289Z,32.53
2023-04-15T23:08:18.404Z,32.52
2023-04-15T23:11:22.853Z,32.75
2023-04-15T23:14:28.092Z,32.27
2023-04-15T23:17:31.091Z,32.37
2023-04-15T23:20:34.317Z,32.52
2023-04-15T23:23:37.335Z,32.64
2023-04-15T23:26:41.983Z,32.56
2023-04-15T23:29:45.079Z,32.75
2023-04-15T23:32:48.184Z,32.68
2023-04-15T23:35:51.523Z,32.40
2023-04-15T23:38:54.527Z,32.30
2023-04-15T23:41:58.915Z,32.66
2023-04-15T23:45:01.935Z,32.70
2023-04-15T23:48:05.019Z,32.34
2023-04-15T23:51:08.099Z,32.32
2023-04-15T23:54:11.109Z,32.60
2023-04-15T23:57:15.579Z,32.56
